createdAt,value
2023-03-05T00:01:16.433Z,101354.19
2023-03-05T00:03:43.136Z,101342.34
2023-03-05T00:06:09.804Z,101353.34
2023-03-05T00:08:36.469Z,101329.88
2023-03-05T00:11:05.059Z,101362.09
2023-03-05T00:13:32.883Z,101360.34
2023-03-05T00:16:02.845Z,101362.09
2023-03-05T00:18:29.449Z,101351.63
2023-03-05T00:20:56.489Z,101352.47
2023-03-05T00:23:23.078Z,101353.34
2023-03-05T00:25:49.749Z,101330.41
2023-03-05T00:28:16.332Z,101349.56
2023-03-05T00:30:43.015Z,101350.53
2023-03-05T00:33:13.740Z,101354.59
2023-03-05T00:35:40.625Z,101357.94
2023-03-05T00:38:07.309Z,101347.53
2023-03-05T00:40:36.526Z,101349.44
2023-03-05T00:43:03.400Z,101352.84
2023-03-05T00:45:30.024Z,101344.94
2023-03-05T00:47:56.574Z,101345.69
2023-03-05T00:50:25.009Z,101344.00
2023-03-05T00:52:52.117Z,101339.22
2023-03-05T00:55:18.751Z,101321.84
2023-03-05T00:57:45.528Z,101332.69
2023-03-05T01:00:13.789Z,101339.69
2023-03-05T01:02:40.676Z,101325.78
2023-03-05T01:05:10.158Z,101302.34
2023-03-05T01:07:38.328Z,101335.31
2023-03-05T01:10:06.309Z,101317.00
2023-03-05T01:12:32.966Z,101327.59
2023-03-05T01:14:59.550Z,101315.69
2023-03-05T01:17:26.125Z,101315.69
2023-03-05T01:19:52.693Z,101312.84
2023-03-05T01:22:19.303Z,101319.88
2023-03-05T01:24:47.359Z,101322.47
2023-03-05T01:27:13.950Z,101256.22
2023-03-05T01:29:40.884Z,101278.19
2023-03-05T01:32:07.482Z,101318.84
2023-03-05T01:34:36.328Z,101301.78
2023-03-05T01:37:03.163Z,101303.66
2023-03-05T01:39:29.700Z,101304.31
2023-03-05T01:41:57.660Z,101293.00
2023-03-05T01:44:26.114Z,101226.16
2023-03-05T01:46:53.259Z,101270.09
2023-03-05T01:49:24.473Z,101277.94
2023-03-05T01:51:58.871Z,101285.41
2023-03-05T01:54:29.245Z,101272.72
2023-03-05T01:57:00.333Z,101282.03
2023-03-05T01:59:27.755Z,101276.13
2023-03-05T02:01:57.630Z,101274.25
2023-03-05T02:04:32.329Z,101268.34
2023-03-05T02:06:59.522Z,101271.72
2023-03-05T02:09:27.310Z,101263.56
2023-03-05T02:11:55.203Z,101243.81
2023-03-05T02:14:23.354Z,101253.66
2023-03-05T02:16:50.479Z,101245.91
2023-03-05T02:19:17.506Z,101252.91
2023-03-05T02:21:47.220Z,101256.38
2023-03-05T02:24:16.121Z,101244.69
2023-03-05T02:26:43.316Z,101250.69
2023-03-05T02:29:12.867Z,101255.97
2023-03-05T02:31:39.561Z,101251.53
2023-03-05T02:34:06.327Z,101249.75
2023-03-05T02:36:33.717Z,101240.03
2023-03-05T02:39:02.127Z,101248.84
2023-03-05T02:41:28.933Z,101243.75
2023-03-05T02:43:58.025Z,101239.38
2023-03-05T02:46:25.346Z,101173.25
2023-03-05T02:48:51.925Z,101229.16
2023-03-05T02:51:19.000Z,101234.22
2023-03-05T02:53:46.937Z,101202.88
2023-03-05T02:56:15.508Z,101226.81
2023-03-05T02:58:42.091Z,101222.31
2023-03-05T03:01:09.653Z,101218.72
2023-03-05T03:03:36.556Z,101224.69
2023-03-05T03:06:03.475Z,101218.72
2023-03-05T03:08:30.030Z,101217.84
2023-03-05T03:10:56.634Z,101212.56
2023-03-05T03:13:24.747Z,101217.00
2023-03-05T03:15:51.308Z,101210.03
2023-03-05T03:18:17.902Z,101203.94
2023-03-05T03:20:44.622Z,101195.03
2023-03-05T03:23:11.151Z,101207.47
2023-03-05T03:25:37.707Z,101176.47
2023-03-05T03:28:04.273Z,101211.94
2023-03-05T03:30:32.242Z,101204.88
2023-03-05T03:32:58.849Z,101204.22
2023-03-05T03:35:25.405Z,101211.78
2023-03-05T03:37:51.941Z,101203.34
2023-03-05T03:40:18.729Z,101198.38
2023-03-05T03:42:45.289Z,101195.66
2023-03-05T03:45:13.031Z,101190.41
2023-03-05T03:47:40.963Z,101196.44
2023-03-05T03:50:08.699Z,101188.72
2023-03-05T03:52:35.265Z,101190.53
2023-03-05T03:55:01.846Z,101185.19
2023-03-05T03:57:29.623Z,101180.88
2023-03-05T03:59:56.265Z,101172.63
2023-03-05T04:02:23.102Z,101181.38
2023-03-05T04:04:51.147Z,101182.16
2023-03-05T04:07:18.040Z,101152.56
2023-03-05T04:09:45.151Z,101176.53
2023-03-05T04:12:11.925Z,101169.41
2023-03-05T04:14:38.496Z,101107.59
2023-03-05T04:17:05.105Z,101167.63
2023-03-05T04:19:31.607Z,101160.03
2023-03-05T04:21:59.506Z,101162.63
2023-03-05T04:24:26.051Z,101164.31
2023-03-05T04:26:52.666Z,101160.88
2023-03-05T04:29:19.476Z,101160.03
2023-03-05T04:31:46.317Z,101153.28
2023-03-05T04:34:12.902Z,101130.31
2023-03-05T04:36:39.723Z,101146.88
2023-03-05T04:39:07.674Z,101115.72
2023-03-05T04:41:34.225Z,101148.66
2023-03-05T04:44:00.738Z,101135.06
2023-03-05T04:46:27.287Z,101143.50
2023-03-05T04:48:53.914Z,101139.19
2023-03-05T04:51:20.476Z,101140.88
2023-03-05T04:53:47.077Z,101131.47
2023-03-05T04:56:14.956Z,101134.28
2023-03-05T04:58:41.522Z,101131.59
2023-03-05T05:01:08.071Z,101133.38
2023-03-05T05:03:34.661Z,101120.63
2023-03-05T05:06:01.754Z,101117.16
2023-03-05T05:08:28.899Z,101094.53
2023-03-05T05:10:57.139Z,101123.47
2023-03-05T05:13:25.921Z,101118.50
2023-03-05T05:15:52.865Z,101122.56
2023-03-05T05:18:19.937Z,101116.50
2023-03-05T05:20:46.812Z,101108.66
2023-03-05T05:23:13.568Z,101103.69
2023-03-05T05:25:40.140Z,101092.78
2023-03-05T05:28:06.960Z,101105.88
2023-03-05T05:30:35.025Z,101107.81
2023-03-05T05:33:01.642Z,101114.19
2023-03-05T05:35:28.495Z,101098.66
2023-03-05T05:37:55.052Z,101105.59
2023-03-05T05:40:21.604Z,101100.69
2023-03-05T05:42:48.214Z,101083.50
2023-03-05T05:45:14.844Z,101110.13
2023-03-05T05:47:42.750Z,101108.53
2023-03-05T05:50:11.325Z,101108.44
2023-03-05T05:52:37.903Z,101106.75
2023-03-05T05:55:05.598Z,101092.00
2023-03-05T05:57:32.234Z,101105.75
2023-03-05T05:59:58.786Z,101086.34
2023-03-05T06:02:25.430Z,101088.19
2023-03-05T06:04:53.301Z,101097.94
2023-03-05T06:07:19.868Z,101102.31
2023-03-05T06:09:46.402Z,101099.69
2023-03-05T06:12:12.929Z,101097.09
2023-03-05T06:14:39.482Z,101103.38
2023-03-05T06:17:06.007Z,101105.22
2023-03-05T06:19:32.776Z,101102.75
2023-03-05T06:22:00.707Z,101095.34
2023-03-05T06:24:27.520Z,101080.06
2023-03-05T06:26:54.043Z,101107.06
2023-03-05T06:29:20.590Z,101108.75
2023-03-05T06:31:47.118Z,101112.22
2023-03-05T06:34:13.929Z,101082.44
2023-03-05T06:36:40.478Z,101111.31
2023-03-05T06:39:08.608Z,101120.91
2023-03-05T06:41:35.185Z,101115.69
2023-03-05T06:44:02.467Z,101110.47
2023-03-05T06:46:30.560Z,101107.78
2023-03-05T06:48:59.923Z,101111.13
2023-03-05T06:51:28.621Z,101104.13
2023-03-05T06:53:56.830Z,101106.75
2023-03-05T06:56:24.801Z,101110.13
2023-03-05T06:58:52.136Z,101093.09
2023-03-05T07:01:19.397Z,101104.84
2023-03-05T07:03:49.566Z,101087.03
2023-03-05T07:06:16.533Z,101099.53
2023-03-05T07:08:43.649Z,101095.63
2023-03-05T07:11:10.758Z,101101.38
2023-03-05T07:13:38.734Z,101085.25
2023-03-05T07:16:07.207Z,101097.75
2023-03-05T07:18:34.209Z,101095.06
2023-03-05T07:21:02.919Z,101096.91
2023-03-05T07:23:29.451Z,101099.44
2023-03-05T07:25:56.146Z,101094.09
2023-03-05T07:28:23.432Z,101067.50
2023-03-05T07:30:57.029Z,101034.59
2023-03-05T07:33:24.094Z,101055.22
2023-03-05T07:35:50.685Z,101075.66
2023-03-05T07:38:17.403Z,101080.13
2023-03-05T07:40:44.234Z,101082.56
2023-03-05T07:43:11.179Z,101071.50
2023-03-05T07:45:40.146Z,101075.03
2023-03-05T07:48:13.446Z,101074.72
2023-03-05T07:50:40.431Z,101083.50
2023-03-05T07:53:07.097Z,101074.66
2023-03-05T07:55:33.974Z,101067.06
2023-03-05T07:58:00.567Z,101070.19
2023-03-05T08:00:27.361Z,101070.78
2023-03-05T08:02:53.961Z,101034.19
2023-03-05T08:05:21.872Z,101063.19
2023-03-05T08:07:48.403Z,101059.19
2023-03-05T08:10:15.027Z,101067.25
2023-03-05T08:12:41.815Z,101059.91
2023-03-05T08:15:09.149Z,101062.47
2023-03-05T08:17:35.793Z,101063.81
2023-03-05T08:20:02.449Z,101065.75
2023-03-05T08:22:30.324Z,101049.88
2023-03-05T08:24:57.264Z,101047.69
2023-03-05T08:27:23.797Z,101002.41
2023-03-05T08:29:50.451Z,101034.84
2023-03-05T08:32:17.165Z,101031.00
2023-03-05T08:34:44.150Z,101027.63
2023-03-05T08:37:10.685Z,101031.97
2023-03-05T08:39:38.645Z,100986.25
2023-03-05T08:42:08.827Z,101025.88
2023-03-05T08:44:35.641Z,101021.25
2023-03-05T08:47:02.184Z,101025.81
2023-03-05T08:49:28.772Z,101023.41
2023-03-05T08:51:55.290Z,100996.91
2023-03-05T08:54:21.977Z,101019.09
2023-03-05T08:56:50.141Z,101011.13
2023-03-05T08:59:16.761Z,101029.84
2023-03-05T09:01:43.364Z,101007.13
2023-03-05T09:04:10.042Z,100969.28
2023-03-05T09:06:36.735Z,101024.72
2023-03-05T09:09:03.567Z,101012.66
2023-03-05T09:11:30.225Z,101010.31
2023-03-05T09:13:58.233Z,101008.72
2023-03-05T09:16:24.810Z,100953.09
2023-03-05T09:18:51.483Z,100999.00
2023-03-05T09:21:18.100Z,101006.56
2023-03-05T09:23:45.225Z,101000.97
2023-03-05T09:26:12.856Z,100998.34
2023-03-05T09:28:39.562Z,101005.00
2023-03-05T09:31:09.226Z,100964.50
2023-03-05T09:33:37.393Z,100996.38
2023-03-05T09:36:05.034Z,100990.13
2023-03-05T09:38:31.810Z,100995.91
2023-03-05T09:41:03.094Z,100983.94
2023-03-05T09:43:40.181Z,100991.63
2023-03-05T09:46:18.528Z,100982.34
2023-03-05T09:48:51.525Z,100979.19
2023-03-05T09:51:22.665Z,100979.81
2023-03-05T09:53:54.721Z,100974.22
2023-03-05T09:56:23.655Z,100971.81
2023-03-05T09:58:54.638Z,100971.59
2023-03-05T10:01:29.057Z,100981.22
2023-03-05T10:03:57.678Z,100941.47
2023-03-05T10:06:27.129Z,100956.91
2023-03-05T10:08:56.525Z,100968.16
2023-03-05T10:11:38.046Z,100965.63
2023-03-05T10:14:05.150Z,100958.78
2023-03-05T10:16:49.417Z,100960.28
2023-03-05T10:19:29.356Z,100912.03
2023-03-05T10:22:11.044Z,100952.88
2023-03-05T10:24:50.214Z,100953.47
2023-03-05T10:27:20.431Z,100953.81
2023-03-05T10:30:03.073Z,100949.53
2023-03-05T10:32:40.562Z,100940.16
2023-03-05T10:35:19.676Z,100939.41
2023-03-05T10:38:04.229Z,100936.59
2023-03-05T10:40:36.274Z,100918.44
2023-03-05T10:43:12.956Z,100918.19
2023-03-05T10:45:43.048Z,100929.78
2023-03-05T10:48:19.153Z,100917.22
2023-03-05T10:50:49.855Z,100913.06
2023-03-05T10:53:24.204Z,100908.44
2023-03-05T10:55:50.922Z,100915.44
2023-03-05T10:58:17.929Z,100910.34
2023-03-05T11:00:58.949Z,100904.50
2023-03-05T11:03:45.285Z,100900.50
2023-03-05T11:06:12.800Z,100900.03
2023-03-05T11:08:39.752Z,100897.16
2023-03-05T11:11:16.563Z,100894.06
2023-03-05T11:13:56.283Z,100901.00
2023-03-05T11:16:25.111Z,100897.16
2023-03-05T11:19:15.573Z,100892.50
2023-03-05T11:21:43.991Z,100890.63
2023-03-05T11:24:13.345Z,100902.88
2023-03-05T11:26:46.904Z,100899.34
2023-03-05T11:29:18.798Z,100891.94
2023-03-05T11:31:45.182Z,100901.00
2023-03-05T11:34:29.215Z,100884.75
2023-03-05T11:37:00.794Z,100888.19
2023-03-05T11:39:27.897Z,100895.38
2023-03-05T11:41:58.930Z,100886.91
2023-03-05T11:44:29.360Z,100891.19
2023-03-05T11:47:00.267Z,100862.50
2023-03-05T11:49:30.135Z,100866.97
2023-03-05T11:52:03.723Z,100876.13
2023-03-05T11:54:36.775Z,100847.88
2023-03-05T11:57:05.977Z,100875.13
2023-03-05T11:59:37.345Z,100874.28
2023-03-05T12:02:14.163Z,100858.09
2023-03-05T12:04:42.066Z,100861.94
2023-03-05T12:07:13.458Z,100859.03
2023-03-05T12:09:42.763Z,100845.00
2023-03-05T12:12:23.263Z,100852.84
2023-03-05T12:14:56.702Z,100852.47
2023-03-05T12:17:30.871Z,100839.31
2023-03-05T12:20:05.980Z,100835.94
2023-03-05T12:22:37.190Z,100831.63
2023-03-05T12:25:34.506Z,100826.69
2023-03-05T12:28:01.803Z,100828.28
2023-03-05T12:30:53.502Z,100819.28
2023-03-05T12:33:34.399Z,100822.38
2023-03-05T12:36:37.228Z,100818.69
2023-03-05T12:39:37.166Z,100808.81
2023-03-05T12:42:51.550Z,100802.78
2023-03-05T12:45:27.532Z,100790.59
2023-03-05T12:48:31.454Z,100791.28
2023-03-05T12:50:58.644Z,100755.53
2023-03-05T12:53:25.126Z,100777.22
2023-03-05T12:55:58.063Z,100749.34
2023-03-05T12:58:36.647Z,100762.59
2023-03-05T13:01:14.370Z,100754.00
2023-03-05T13:03:48.426Z,100723.34
2023-03-05T13:06:28.275Z,100747.38
2023-03-05T13:08:59.831Z,100737.72
2023-03-05T13:11:28.267Z,100738.06
2023-03-05T13:13:57.578Z,100737.00
2023-03-05T13:16:27.246Z,100726.72
2023-03-05T13:18:54.846Z,100733.00
2023-03-05T13:21:25.564Z,100731.97
2023-03-05T13:23:53.341Z,100729.78
2023-03-05T13:26:20.546Z,100735.22
2023-03-05T13:31:43.059Z,100722.19
2023-03-05T13:34:15.867Z,100720.41
2023-03-05T13:36:47.616Z,100712.66
2023-03-05T13:39:21.687Z,100715.28
2023-03-05T13:41:59.884Z,100708.13
2023-03-05T13:44:28.408Z,100707.19
2023-03-05T13:47:07.519Z,100694.09
2023-03-05T13:49:34.168Z,100700.06
2023-03-05T13:52:00.702Z,100687.16
2023-03-05T13:54:28.594Z,100699.75
2023-03-05T13:56:57.135Z,100684.78
2023-03-05T13:59:25.334Z,100686.88
2023-03-05T14:01:53.856Z,100679.63
2023-03-05T14:04:23.503Z,100680.47
2023-03-05T14:06:54.786Z,100682.44
2023-03-05T14:09:24.183Z,100675.22
2023-03-05T14:11:56.128Z,100638.28
2023-03-05T14:14:24.486Z,100674.28
2023-03-05T14:16:53.669Z,100671.31
2023-03-05T14:19:34.322Z,100671.09
2023-03-05T14:22:01.756Z,100614.91
2023-03-05T14:24:29.193Z,100661.59
2023-03-05T14:26:56.910Z,100660.59
2023-03-05T14:29:26.170Z,100654.09
2023-03-05T14:31:57.585Z,100651.78
2023-03-05T14:34:29.477Z,100623.69
2023-03-05T14:36:57.938Z,100640.47
2023-03-05T14:39:31.298Z,100637.13
2023-03-05T14:42:27.668Z,100626.72
2023-03-05T14:44:55.300Z,100627.78
2023-03-05T14:47:23.326Z,100614.16
2023-03-05T14:49:50.374Z,100613.22
2023-03-05T14:52:19.008Z,100607.06
2023-03-05T14:54:46.360Z,100608.59
2023-03-05T14:57:16.713Z,100586.00
2023-03-05T14:59:43.484Z,100594.78
2023-03-05T15:02:15.006Z,100594.38
2023-03-05T15:04:43.079Z,100587.78
2023-03-05T15:07:16.188Z,100584.09
2023-03-05T15:09:42.871Z,100584.63
2023-03-05T15:12:11.365Z,100574.44
2023-03-05T15:14:37.993Z,100577.47
2023-03-05T15:17:04.830Z,100571.53
2023-03-05T15:19:31.461Z,100564.91
2023-03-05T15:21:59.415Z,100573.94
2023-03-05T15:24:26.014Z,100576.06
2023-03-05T15:26:52.710Z,100572.59
2023-03-05T15:29:19.526Z,100572.28
2023-03-05T15:31:46.063Z,100550.59
2023-03-05T15:34:12.723Z,100564.28
2023-03-05T15:36:39.247Z,100551.94
2023-03-05T15:39:07.231Z,100557.50
2023-03-05T15:41:33.994Z,100551.84
2023-03-05T15:44:00.690Z,100534.94
2023-03-05T15:46:27.325Z,100548.56
2023-03-05T15:48:54.021Z,100545.84
2023-03-05T15:51:20.638Z,100547.72
2023-03-05T15:53:47.508Z,100538.50
2023-03-05T15:56:16.177Z,100540.28
2023-03-05T15:58:42.830Z,100541.44
2023-03-05T16:01:09.393Z,100532.94
2023-03-05T16:03:36.063Z,100506.75
2023-03-05T16:06:03.147Z,100537.88
2023-03-05T16:08:29.787Z,100530.03
2023-03-05T16:10:56.312Z,100525.09
2023-03-05T16:13:24.429Z,100502.25
2023-03-05T16:15:50.971Z,100514.09
2023-03-05T16:18:17.569Z,100513.25
2023-03-05T16:20:44.613Z,100515.03
2023-03-05T16:23:11.480Z,100504.25
2023-03-05T16:25:38.313Z,100512.81
2023-03-05T16:28:05.462Z,100520.81
2023-03-05T16:30:33.630Z,100518.34
2023-03-05T16:33:00.368Z,100515.53
2023-03-05T16:35:26.934Z,100513.88
2023-03-05T16:37:53.640Z,100512.09
2023-03-05T16:40:20.197Z,100510.59
2023-03-05T16:42:46.943Z,100504.66
2023-03-05T16:45:13.507Z,100501.28
2023-03-05T16:47:41.535Z,100499.72
2023-03-05T16:50:10.036Z,100498.97
2023-03-05T16:52:37.089Z,100495.63
2023-03-05T16:55:03.846Z,100495.00
2023-03-05T16:57:30.582Z,100493.50
2023-03-05T16:59:57.495Z,100495.72
2023-03-05T17:02:24.289Z,100495.06
2023-03-05T17:04:52.160Z,100492.34
2023-03-05T17:07:18.849Z,100482.81
2023-03-05T17:09:45.561Z,100482.06
2023-03-05T17:12:12.107Z,100481.22
2023-03-05T17:14:38.633Z,100485.75
2023-03-05T17:17:05.309Z,100466.25
2023-03-05T17:19:31.854Z,100474.63
2023-03-05T17:21:59.789Z,100473.06
2023-03-05T17:24:26.297Z,100471.41
2023-03-05T17:26:52.950Z,100470.56
2023-03-05T17:29:19.555Z,100464.78
2023-03-05T17:31:46.259Z,100479.25
2023-03-05T17:34:12.954Z,100481.84
2023-03-05T17:36:39.666Z,100468.88
2023-03-05T17:39:07.560Z,100455.03
2023-03-05T17:41:34.194Z,100467.72
2023-03-05T17:44:00.757Z,100466.88
2023-03-05T17:46:27.397Z,100455.31
2023-03-05T17:48:55.137Z,100474.72
2023-03-05T17:51:21.785Z,100477.44
2023-03-05T17:53:48.335Z,100478.56
2023-03-05T17:56:16.329Z,100478.66
2023-03-05T17:58:42.980Z,100469.97
2023-03-05T18:01:09.636Z,100464.41
2023-03-05T18:03:37.162Z,100467.69
2023-03-05T18:06:04.694Z,100478.31
2023-03-05T18:08:31.356Z,100474.00
2023-03-05T18:10:57.948Z,100472.47
2023-03-05T18:13:25.825Z,100472.56
2023-03-05T18:15:52.423Z,100468.47
2023-03-05T18:18:18.927Z,100476.41
2023-03-05T18:20:46.145Z,100448.91
2023-03-05T18:23:12.936Z,100463.81
2023-03-05T18:25:39.811Z,100462.22
2023-03-05T18:28:08.404Z,100453.75
2023-03-05T18:30:37.132Z,100460.22
2023-03-05T18:33:04.516Z,100453.50
2023-03-05T18:35:31.525Z,100460.22
2023-03-05T18:37:58.174Z,100439.16
2023-03-05T18:40:27.877Z,100443.88
2023-03-05T18:42:54.403Z,100415.69
2023-03-05T18:45:22.709Z,100427.41
2023-03-05T18:47:50.702Z,100442.63
2023-03-05T18:50:17.800Z,100416.91
2023-03-05T18:52:44.716Z,100437.19
2023-03-05T18:55:14.994Z,100429.75
2023-03-05T18:57:41.792Z,100386.72
2023-03-05T19:00:10.427Z,100429.88
2023-03-05T19:02:37.002Z,100423.91
2023-03-05T19:05:05.269Z,100425.75
2023-03-05T19:07:31.905Z,100426.81
2023-03-05T19:09:59.782Z,100420.75
2023-03-05T19:12:28.089Z,100430.44
2023-03-05T19:14:54.567Z,100429.50
2023-03-05T19:17:21.170Z,100423.75
2023-03-05T19:19:51.235Z,100428.28
2023-03-05T19:22:22.176Z,100424.84
2023-03-05T19:24:48.870Z,100412.84
2023-03-05T19:27:15.364Z,100412.91
2023-03-05T19:29:43.124Z,100412.00
2023-03-05T19:32:11.590Z,100405.84
2023-03-05T19:34:38.238Z,100387.03
2023-03-05T19:37:05.528Z,100407.16
2023-03-05T19:39:34.166Z,100401.94
2023-03-05T19:42:00.820Z,100400.34
2023-03-05T19:44:27.512Z,100397.00
2023-03-05T19:46:54.271Z,100399.72
2023-03-05T19:49:21.414Z,100396.25
2023-03-05T19:51:48.502Z,100389.34
2023-03-05T19:54:16.909Z,100400.53
2023-03-05T19:56:46.485Z,100397.09
2023-03-05T19:59:14.191Z,100391.03
2023-03-05T20:01:40.894Z,100397.09
2023-03-05T20:04:07.592Z,100388.25
2023-03-05T20:06:34.262Z,100388.25
2023-03-05T20:09:00.859Z,100389.91
2023-03-05T20:11:28.475Z,100391.88
2023-03-05T20:13:57.013Z,100383.97
2023-03-05T20:16:26.253Z,100387.41
2023-03-05T20:18:54.045Z,100385.63
2023-03-05T20:21:22.274Z,100385.63
2023-03-05T20:23:49.315Z,100387.50
2023-03-05T20:26:15.970Z,100375.66
2023-03-05T20:28:42.552Z,100370.63
2023-03-05T20:31:10.485Z,100381.44
2023-03-05T20:33:37.278Z,100380.50
2023-03-05T20:36:04.283Z,100357.97
2023-03-05T20:38:31.677Z,100383.22
2023-03-05T20:41:00.218Z,100379.84
2023-03-05T20:43:28.415Z,100374.75
2023-03-05T20:45:56.388Z,100368.31
2023-03-05T20:48:25.369Z,100360.66
2023-03-05T20:50:51.958Z,100361.69
2023-03-05T20:53:19.474Z,100361.41
2023-03-05T20:55:46.473Z,100358.03
2023-03-05T20:58:13.500Z,100352.44
2023-03-05T21:00:40.850Z,100352.13
2023-03-05T21:03:08.473Z,100311.66
2023-03-05T21:05:36.748Z,100342.34
2023-03-05T21:08:04.421Z,100338.91
2023-03-05T21:10:31.779Z,100336.19
2023-03-05T21:13:00.794Z,100323.25
2023-03-05T21:15:30.009Z,100313.19
2023-03-05T21:17:57.470Z,100335.81
2023-03-05T21:20:26.129Z,100291.22
2023-03-05T21:22:54.119Z,100283.41
2023-03-05T21:25:22.336Z,100320.69
2023-03-05T21:27:51.384Z,100319.00
2023-03-05T21:30:19.216Z,100276.94
2023-03-05T21:32:46.353Z,100278.22
2023-03-05T21:35:16.666Z,100299.88
2023-03-05T21:37:43.430Z,100304.63
2023-03-05T21:40:14.470Z,100300.16
2023-03-05T21:42:42.074Z,100294.09
2023-03-05T21:45:11.882Z,100298.25
2023-03-05T21:47:39.185Z,100297.31
2023-03-05T21:50:07.334Z,100290.31
2023-03-05T21:52:34.099Z,100287.53
2023-03-05T21:55:00.676Z,100279.69
2023-03-05T21:57:29.131Z,100275.28
2023-03-05T21:59:56.124Z,100255.84
2023-03-05T22:02:22.816Z,100249.13
2023-03-05T22:04:49.540Z,100251.38
2023-03-05T22:07:17.672Z,100258.78
2023-03-05T22:09:44.510Z,100232.66
2023-03-05T22:12:11.173Z,100253.66
2023-03-05T22:14:39.059Z,100252.81
2023-03-05T22:17:05.796Z,100225.09
2023-03-05T22:19:32.642Z,100245.09
2023-03-05T22:21:59.751Z,100243.53
2023-03-05T22:24:26.409Z,100237.75
2023-03-05T22:26:53.031Z,100235.13
2023-03-05T22:29:19.596Z,100233.19
2023-03-05T22:31:47.708Z,100228.88
2023-03-05T22:34:14.253Z,100204.75
2023-03-05T22:36:40.820Z,100222.84
2023-03-05T22:39:07.357Z,100217.41
2023-03-05T22:41:33.996Z,100220.41
2023-03-05T22:44:00.503Z,100208.31
2023-03-05T22:46:27.424Z,100211.75
2023-03-05T22:48:55.374Z,100209.44
2023-03-05T22:51:21.986Z,100184.34
2023-03-05T22:53:48.599Z,100209.56
2023-03-05T22:56:17.463Z,100191.69
2023-03-05T22:58:44.137Z,100197.44
2023-03-05T23:01:12.228Z,100194.09
2023-03-05T23:03:39.157Z,100193.06
2023-03-05T23:06:08.393Z,100197.22
2023-03-05T23:08:35.015Z,100181.03
2023-03-05T23:11:06.970Z,100189.59
2023-03-05T23:13:33.371Z,100189.59
2023-03-05T23:15:59.948Z,100187.84
2023-03-05T23:18:26.582Z,100186.06
2023-03-05T23:20:53.163Z,100184.25
2023-03-05T23:23:21.137Z,100180.63
2023-03-05T23:25:50.259Z,100174.56
2023-03-05T23:28:17.196Z,100177.97
2023-03-05T23:30:43.789Z,100176.13
2023-03-05T23:33:14.859Z,100178.31
2023-03-05T23:35:43.244Z,100149.34
2023-03-05T23:38:12.931Z,100184.25
2023-03-05T23:40:43.380Z,100175.03
2023-03-05T23:43:10.059Z,100176.94
2023-03-05T23:45:36.968Z,100176.94
2023-03-05T23:48:04.258Z,100179.44
2023-03-05T23:50:33.386Z,100171.72
2023-03-05T23:53:01.978Z,100163.22
2023-03-05T23:55:31.047Z,100149.75
2023-03-05T23:57:59.056Z,100158.66
